createdAt,value
2022-09-17T00:01:15.232Z,76.50
2022-09-17T00:03:44.652Z,76.50
2022-09-17T00:06:12.702Z,76.50
2022-09-17T00:08:41.304Z,76.40
2022-09-17T00:11:17.066Z,76.50
2022-09-17T00:13:45.098Z,76.50
2022-09-17T00:16:12.533Z,76.50
2022-09-17T00:18:41.907Z,76.50
2022-09-17T00:21:17.445Z,76.50
2022-09-17T00:23:44.382Z,76.50
2022-09-17T00:26:13.997Z,76.50
2022-09-17T00:28:41.929Z,76.60
2022-09-17T00:31:10.049Z,76.70
2022-09-17T00:33:37.457Z,77.50
2022-09-17T00:36:05.624Z,76.60
2022-09-17T00:38:33.002Z,76.50
2022-09-17T00:41:00.122Z,76.50
2022-09-17T00:43:49.562Z,76.50
2022-09-17T00:46:40.325Z,76.40
2022-09-17T00:49:17.797Z,76.40
2022-09-17T00:52:00.467Z,76.40
2022-09-17T00:54:28.305Z,76.40
2022-09-17T00:56:55.270Z,77.30
2022-09-17T00:59:23.101Z,76.30
2022-09-17T01:01:50.491Z,76.40
2022-09-17T01:04:26.192Z,76.40
2022-09-17T01:07:19.048Z,76.50
2022-09-17T01:09:51.825Z,76.50
2022-09-17T01:12:26.480Z,76.50
2022-09-17T01:15:09.471Z,76.50
2022-09-17T01:17:54.065Z,76.50
2022-09-17T01:20:50.880Z,76.50
2022-09-17T01:23:52.220Z,76.40
2022-09-17T01:26:43.606Z,76.50
2022-09-17T01:29:55.171Z,76.30
2022-09-17T01:32:46.120Z,76.30
2022-09-17T01:35:36.252Z,76.30
2022-09-17T01:38:13.716Z,76.50
2022-09-17T01:41:07.709Z,76.50
2022-09-17T01:43:52.774Z,76.50
2022-09-17T01:46:32.219Z,76.30
2022-09-17T01:49:02.655Z,76.50
2022-09-17T01:51:50.871Z,76.50
2022-09-17T01:54:29.558Z,76.50
2022-09-17T01:57:02.218Z,76.50
2022-09-17T01:59:50.217Z,76.60
2022-09-17T02:02:21.967Z,76.60
2022-09-17T02:04:57.193Z,76.60
2022-09-17T02:07:26.040Z,76.80
2022-09-17T02:10:06.028Z,76.80
2022-09-17T02:12:39.540Z,76.80
2022-09-17T02:15:17.131Z,76.80
2022-09-17T02:17:49.960Z,76.90
2022-09-17T02:20:22.689Z,76.90
2022-09-17T02:23:02.245Z,76.80
2022-09-17T02:25:42.273Z,76.90
2022-09-17T02:28:13.732Z,77.00
2022-09-17T02:30:40.602Z,77.00
2022-09-17T02:33:12.068Z,77.00
2022-09-17T02:35:39.691Z,77.20
2022-09-17T02:38:06.782Z,77.20
2022-09-17T02:40:48.942Z,77.20
2022-09-17T02:43:30.975Z,77.30
2022-09-17T02:46:26.735Z,77.30
2022-09-17T02:49:14.916Z,77.30
2022-09-17T02:51:44.805Z,77.30
2022-09-17T02:54:34.762Z,77.20
2022-09-17T02:57:23.627Z,77.00
2022-09-17T03:00:04.707Z,76.90
2022-09-17T03:02:43.571Z,76.90
2022-09-17T03:05:15.797Z,76.80
2022-09-17T03:07:42.691Z,76.90
2022-09-17T03:10:09.660Z,76.80
2022-09-17T03:12:37.273Z,76.70
2022-09-17T03:15:05.004Z,76.80
2022-09-17T03:17:32.593Z,76.80
2022-09-17T03:19:59.264Z,76.90
2022-09-17T03:22:26.107Z,77.00
2022-09-17T03:24:53.031Z,77.00
2022-09-17T03:27:19.964Z,77.00
2022-09-17T03:29:46.885Z,77.10
2022-09-17T03:32:13.632Z,77.10
2022-09-17T03:34:40.418Z,77.00
2022-09-17T03:37:07.335Z,77.00
2022-09-17T03:39:33.997Z,77.00
2022-09-17T03:42:03.065Z,77.10
2022-09-17T03:44:29.798Z,77.10
2022-09-17T03:47:08.483Z,77.10
2022-09-17T03:49:35.396Z,77.10
2022-09-17T03:52:02.483Z,77.10
2022-09-17T03:54:29.167Z,77.10
2022-09-17T03:56:55.994Z,77.20
2022-09-17T03:59:23.337Z,77.10
2022-09-17T04:01:50.204Z,77.20
2022-09-17T04:04:17.056Z,77.30
2022-09-17T04:06:43.832Z,77.10
2022-09-17T04:09:12.566Z,77.30
2022-09-17T04:11:41.923Z,77.30
2022-09-17T04:14:08.700Z,77.30
2022-09-17T04:16:35.467Z,77.40
2022-09-17T04:19:05.361Z,77.40
2022-09-17T04:21:32.154Z,77.50
2022-09-17T04:24:07.448Z,77.50
2022-09-17T04:26:34.234Z,77.50
2022-09-17T04:29:03.873Z,77.50
2022-09-17T04:31:33.509Z,77.60
2022-09-17T04:34:00.441Z,77.60
2022-09-17T04:36:27.231Z,77.60
2022-09-17T04:38:54.231Z,77.60
2022-09-17T04:41:21.128Z,77.60
2022-09-17T04:43:48.114Z,77.60
2022-09-17T04:46:16.841Z,77.70
2022-09-17T04:48:44.013Z,78.50
2022-09-17T04:51:10.784Z,77.80
2022-09-17T04:53:38.503Z,77.70
2022-09-17T04:56:05.598Z,77.80
2022-09-17T04:58:33.043Z,77.80
2022-09-17T05:00:59.963Z,77.80
2022-09-17T05:03:26.914Z,77.80
2022-09-17T05:05:53.733Z,78.00
2022-09-17T05:08:24.094Z,78.00
2022-09-17T05:10:51.566Z,78.00
2022-09-17T05:13:19.115Z,77.90
2022-09-17T05:15:46.249Z,78.00
2022-09-17T05:18:19.635Z,78.00
2022-09-17T05:20:46.513Z,78.00
2022-09-17T05:23:15.365Z,78.00
2022-09-17T05:25:44.701Z,78.00
2022-09-17T05:28:11.509Z,78.00
2022-09-17T05:30:38.276Z,78.00
2022-09-17T05:33:07.164Z,78.00
2022-09-17T05:35:35.963Z,78.10
2022-09-17T05:38:05.264Z,78.00
2022-09-17T05:40:35.254Z,78.00
2022-09-17T05:43:04.362Z,78.00
2022-09-17T05:45:32.295Z,78.10
2022-09-17T05:48:01.006Z,78.20
2022-09-17T05:50:29.199Z,78.20
2022-09-17T05:52:58.802Z,78.20
2022-09-17T05:55:26.514Z,78.20
2022-09-17T05:57:53.431Z,78.30
2022-09-17T06:00:20.647Z,78.20
2022-09-17T06:02:47.467Z,78.00
2022-09-17T06:05:16.828Z,77.90
2022-09-17T06:07:48.366Z,77.80
2022-09-17T06:10:15.351Z,77.70
2022-09-17T06:12:43.280Z,77.60
2022-09-17T06:15:14.577Z,77.60
2022-09-17T06:17:42.265Z,77.50
2022-09-17T06:20:10.171Z,77.40
2022-09-17T06:22:40.045Z,77.30
2022-09-17T06:25:07.947Z,77.10
2022-09-17T06:27:35.450Z,77.00
2022-09-17T06:30:02.592Z,77.90
2022-09-17T06:32:29.611Z,76.70
2022-09-17T06:34:57.329Z,76.70
2022-09-17T06:37:33.686Z,76.50
2022-09-17T06:40:00.521Z,76.40
2022-09-17T06:42:28.593Z,76.30
2022-09-17T06:44:55.427Z,76.10
2022-09-17T06:47:24.685Z,76.20
2022-09-17T06:49:51.887Z,76.00
2022-09-17T06:52:18.743Z,76.00
2022-09-17T06:54:45.583Z,76.00
2022-09-17T06:57:12.426Z,76.10
2022-09-17T06:59:39.266Z,76.00
2022-09-17T07:02:06.274Z,76.00
2022-09-17T07:04:33.274Z,76.00
2022-09-17T07:07:00.111Z,75.90
2022-09-17T07:09:26.801Z,75.90
2022-09-17T07:11:53.510Z,75.80
2022-09-17T07:14:21.151Z,75.80
2022-09-17T07:16:47.997Z,75.70
2022-09-17T07:19:15.017Z,75.70
2022-09-17T07:21:42.219Z,75.60
2022-09-17T07:24:09.090Z,75.70
2022-09-17T07:26:35.913Z,75.90
2022-09-17T07:29:02.775Z,75.80
2022-09-17T07:31:29.536Z,75.60
2022-09-17T07:33:56.289Z,75.40
2022-09-17T07:36:23.060Z,75.30
2022-09-17T07:38:49.815Z,75.80
2022-09-17T07:41:17.791Z,77.10
2022-09-17T07:43:45.204Z,77.30
2022-09-17T07:46:17.387Z,75.50
2022-09-17T07:48:44.571Z,73.00
2022-09-17T07:51:18.426Z,71.80
2022-09-17T07:53:45.748Z,69.70
2022-09-17T07:56:12.524Z,67.10
2022-09-17T07:58:39.677Z,66.50
2022-09-17T08:01:11.684Z,66.80
2022-09-17T08:03:39.937Z,67.50
2022-09-17T08:06:12.462Z,69.10
2022-09-17T08:08:40.116Z,70.00
2022-09-17T08:11:10.017Z,70.00
2022-09-17T08:13:37.206Z,68.70
2022-09-17T08:16:09.859Z,67.70
2022-09-17T08:18:36.830Z,66.30
2022-09-17T08:21:05.889Z,65.30
2022-09-17T08:23:35.590Z,64.60
2022-09-17T08:26:03.551Z,64.50
2022-09-17T08:28:31.695Z,64.60
2022-09-17T08:31:09.568Z,64.00
2022-09-17T08:33:38.348Z,64.80
2022-09-17T08:36:07.431Z,64.30
2022-09-17T08:38:38.735Z,64.50
2022-09-17T08:41:08.425Z,64.80
2022-09-17T08:43:47.525Z,64.60
2022-09-17T08:46:17.503Z,64.60
2022-09-17T08:49:02.956Z,64.80
2022-09-17T08:51:53.302Z,65.00
2022-09-17T08:54:40.808Z,64.80
2022-09-17T08:57:36.767Z,65.60
2022-09-17T09:00:11.501Z,66.50
2022-09-17T09:02:59.961Z,67.20
2022-09-17T09:05:30.336Z,67.50
2022-09-17T09:08:03.863Z,67.50
2022-09-17T09:11:02.973Z,67.50
2022-09-17T09:13:41.060Z,67.70
2022-09-17T09:16:18.295Z,67.40
2022-09-17T09:18:47.224Z,66.20
2022-09-17T09:21:40.227Z,65.60
2022-09-17T09:24:14.735Z,65.70
2022-09-17T09:26:49.119Z,65.50
2022-09-17T09:30:12.229Z,66.10
2022-09-17T09:33:00.127Z,66.40
2022-09-17T09:35:34.650Z,66.80
2022-09-17T09:38:23.254Z,67.00
2022-09-17T09:41:24.676Z,66.50
2022-09-17T09:44:04.999Z,66.10
2022-09-17T09:46:44.263Z,66.30
2022-09-17T09:49:31.983Z,66.30
2022-09-17T09:52:32.898Z,66.60
2022-09-17T09:55:08.016Z,67.30
2022-09-17T09:57:48.703Z,66.50
2022-09-17T10:00:36.406Z,66.30
2022-09-17T10:03:27.988Z,65.70
2022-09-17T10:06:02.549Z,65.70
2022-09-17T10:08:31.869Z,66.10
2022-09-17T10:11:05.267Z,65.80
2022-09-17T10:13:35.694Z,66.30
2022-09-17T10:16:30.434Z,66.70
2022-09-17T10:19:09.242Z,67.30
2022-09-17T10:21:40.913Z,68.00
2022-09-17T10:24:20.814Z,68.10
2022-09-17T10:26:50.911Z,68.00
2022-09-17T10:29:20.579Z,67.90
2022-09-17T10:31:48.681Z,68.00
2022-09-17T10:34:32.811Z,68.40
2022-09-17T10:37:02.597Z,68.30
2022-09-17T10:39:48.662Z,68.20
2022-09-17T10:42:17.296Z,67.90
2022-09-17T10:44:58.066Z,67.20
2022-09-17T10:47:31.749Z,67.00
2022-09-17T10:50:03.673Z,66.80
2022-09-17T10:52:42.201Z,66.80
2022-09-17T10:55:15.005Z,66.30
2022-09-17T10:57:59.748Z,66.30
2022-09-17T11:00:30.074Z,66.50
2022-09-17T11:03:35.668Z,66.70
2022-09-17T11:06:23.186Z,66.60
2022-09-17T11:09:10.704Z,66.70
2022-09-17T11:12:21.019Z,67.30
2022-09-17T11:14:59.944Z,66.40
2022-09-17T11:17:54.640Z,65.80
2022-09-17T11:20:24.470Z,64.70
2022-09-17T11:23:14.820Z,64.70
2022-09-17T11:25:51.124Z,64.10
2022-09-17T11:28:39.682Z,64.30
2022-09-17T11:31:27.529Z,64.50
2022-09-17T11:34:01.099Z,64.30
2022-09-17T11:36:38.393Z,64.10
2022-09-17T11:39:14.292Z,64.60
2022-09-17T11:41:45.565Z,64.80
2022-09-17T11:44:17.540Z,63.90
2022-09-17T11:46:49.919Z,63.40
2022-09-17T11:49:37.933Z,63.00
2022-09-17T11:52:22.067Z,62.50
2022-09-17T11:54:51.913Z,61.70
2022-09-17T11:57:21.714Z,61.80
2022-09-17T12:00:05.783Z,62.20
2022-09-17T12:02:56.611Z,62.60
2022-09-17T12:05:29.976Z,62.40
2022-09-17T12:08:04.655Z,62.50
2022-09-17T12:10:49.745Z,62.90
2022-09-17T12:13:22.273Z,63.40
2022-09-17T12:16:04.820Z,63.70
2022-09-17T12:18:40.569Z,63.40
2022-09-17T12:21:11.188Z,62.60
2022-09-17T12:23:41.100Z,61.60
2022-09-17T12:26:42.132Z,61.40
2022-09-17T12:29:30.844Z,60.10
2022-09-17T12:32:15.833Z,59.70
2022-09-17T12:35:53.010Z,59.70
2022-09-17T12:38:19.600Z,59.80
2022-09-17T12:40:59.801Z,58.90
2022-09-17T12:43:45.015Z,57.80
2022-09-17T12:46:23.520Z,57.70
2022-09-17T12:48:50.237Z,56.30
2022-09-17T12:51:28.640Z,56.00
2022-09-17T12:54:52.212Z,55.30
2022-09-17T12:57:29.776Z,55.20
2022-09-17T13:00:08.376Z,53.80
2022-09-17T13:02:57.136Z,53.40
2022-09-17T13:05:55.627Z,52.80
2022-09-17T13:08:46.884Z,53.90
2022-09-17T13:11:44.449Z,54.00
2022-09-17T13:14:49.443Z,54.70
2022-09-17T13:17:16.149Z,54.60
2022-09-17T13:20:13.934Z,54.60
2022-09-17T13:22:47.622Z,53.90
2022-09-17T13:25:17.824Z,53.90
2022-09-17T13:27:46.182Z,54.00
2022-09-17T13:30:17.826Z,54.10
2022-09-17T13:32:50.941Z,53.90
2022-09-17T13:35:17.646Z,54.50
2022-09-17T13:37:56.376Z,54.60
2022-09-17T13:40:27.867Z,54.30
2022-09-17T13:42:55.628Z,53.90
2022-09-17T13:45:24.071Z,54.00
2022-09-17T13:48:05.576Z,53.60
2022-09-17T13:50:41.111Z,52.90
2022-09-17T13:53:18.120Z,52.90
2022-09-17T13:55:44.791Z,53.10
2022-09-17T13:58:25.610Z,53.20
2022-09-17T14:00:55.645Z,52.90
2022-09-17T14:03:31.358Z,52.70
2022-09-17T14:06:21.089Z,52.80
2022-09-17T14:08:56.998Z,53.10
2022-09-17T14:11:23.735Z,53.80
2022-09-17T14:13:51.647Z,54.40
2022-09-17T14:16:24.460Z,54.40
2022-09-17T14:19:18.296Z,54.20
2022-09-17T14:22:03.390Z,54.70
2022-09-17T14:24:49.594Z,53.70
2022-09-17T14:27:51.020Z,53.60
2022-09-17T14:30:23.418Z,53.70
2022-09-17T14:33:08.804Z,53.50
2022-09-17T14:35:42.868Z,53.40
2022-09-17T14:38:28.313Z,53.00
2022-09-17T14:41:00.802Z,52.90
2022-09-17T14:43:43.336Z,52.70
2022-09-17T14:46:19.710Z,52.10
2022-09-17T14:48:46.441Z,51.80
2022-09-17T14:51:25.561Z,51.40
2022-09-17T14:54:05.755Z,51.40
2022-09-17T14:56:34.686Z,51.10
2022-09-17T14:59:02.181Z,50.50
2022-09-17T15:01:30.979Z,49.70
2022-09-17T15:04:13.156Z,49.60
2022-09-17T15:06:44.244Z,49.60
2022-09-17T15:09:18.983Z,49.70
2022-09-17T15:11:49.913Z,49.50
2022-09-17T15:14:25.729Z,49.40
2022-09-17T15:16:56.340Z,49.20
2022-09-17T15:19:32.313Z,48.80
2022-09-17T15:22:03.700Z,48.70
2022-09-17T15:24:50.451Z,48.80
2022-09-17T15:27:34.317Z,49.20
2022-09-17T15:30:10.181Z,49.60
2022-09-17T15:32:38.659Z,49.70
2022-09-17T15:35:14.407Z,49.50
2022-09-17T15:38:21.105Z,49.60
2022-09-17T15:40:45.266Z,50.00
2022-09-17T15:43:22.020Z,50.10
2022-09-17T15:45:48.865Z,50.10
2022-09-17T15:48:38.064Z,50.00
2022-09-17T15:51:13.593Z,50.30
2022-09-17T15:54:01.004Z,50.50
2022-09-17T15:56:35.216Z,50.40
2022-09-17T15:59:03.570Z,50.30
2022-09-17T16:01:30.371Z,49.90
2022-09-17T16:04:08.112Z,50.50
2022-09-17T16:06:36.629Z,50.00
2022-09-17T16:09:03.875Z,50.10
2022-09-17T16:11:32.291Z,50.00
2022-09-17T16:14:00.994Z,49.80
2022-09-17T16:16:37.224Z,49.40
2022-09-17T16:19:05.828Z,49.60
2022-09-17T16:21:32.793Z,50.00
2022-09-17T16:23:59.532Z,49.80
2022-09-17T16:26:30.622Z,49.80
2022-09-17T16:29:05.042Z,49.50
2022-09-17T16:31:32.943Z,49.90
2022-09-17T16:34:00.734Z,50.10
2022-09-17T16:36:31.084Z,49.90
2022-09-17T16:38:58.555Z,49.70
2022-09-17T16:41:25.262Z,50.00
2022-09-17T16:43:51.984Z,50.20
2022-09-17T16:46:18.776Z,50.50
2022-09-17T16:48:49.931Z,50.60
2022-09-17T16:51:16.974Z,50.80
2022-09-17T16:53:43.821Z,51.00
2022-09-17T16:56:13.357Z,51.30
2022-09-17T16:58:41.595Z,51.40
2022-09-17T17:01:16.165Z,51.80
2022-09-17T17:03:45.459Z,52.30
2022-09-17T17:06:16.838Z,52.80
2022-09-17T17:08:43.621Z,53.40
2022-09-17T17:11:10.688Z,53.60
2022-09-17T17:13:37.397Z,53.70
2022-09-17T17:16:08.514Z,53.80
2022-09-17T17:18:35.278Z,53.70
2022-09-17T17:21:09.689Z,53.80
2022-09-17T17:23:36.913Z,54.00
2022-09-17T17:26:03.898Z,54.00
2022-09-17T17:28:37.865Z,54.90
2022-09-17T17:31:05.575Z,54.50
2022-09-17T17:33:35.601Z,54.70
2022-09-17T17:36:08.217Z,55.00
2022-09-17T17:38:36.286Z,55.40
2022-09-17T17:41:13.848Z,55.90
2022-09-17T17:43:41.805Z,56.30
2022-09-17T17:46:10.437Z,56.80
2022-09-17T17:48:37.958Z,57.30
2022-09-17T17:51:06.895Z,58.50
2022-09-17T17:53:34.425Z,58.10
2022-09-17T17:56:04.336Z,58.40
2022-09-17T17:58:31.366Z,58.90
2022-09-17T18:00:58.188Z,59.20
2022-09-17T18:03:25.352Z,59.50
2022-09-17T18:05:56.290Z,59.60
2022-09-17T18:08:24.489Z,59.80
2022-09-17T18:11:00.521Z,60.10
2022-09-17T18:13:27.344Z,60.30
2022-09-17T18:15:56.387Z,60.40
2022-09-17T18:18:24.389Z,60.80
2022-09-17T18:20:57.383Z,61.10
2022-09-17T18:23:24.172Z,61.20
2022-09-17T18:25:59.046Z,61.40
2022-09-17T18:28:27.308Z,61.70
2022-09-17T18:30:54.730Z,61.80
2022-09-17T18:33:26.507Z,62.10
2022-09-17T18:35:57.431Z,62.40
2022-09-17T18:38:24.509Z,62.60
2022-09-17T18:40:51.861Z,62.80
2022-09-17T18:43:18.800Z,63.10
2022-09-17T18:45:55.953Z,63.40
2022-09-17T18:48:23.567Z,64.40
2022-09-17T18:51:04.504Z,63.80
2022-09-17T18:53:36.227Z,64.00
2022-09-17T18:56:16.279Z,64.30
2022-09-17T18:58:47.519Z,64.50
2022-09-17T19:01:15.018Z,64.70
2022-09-17T19:03:44.992Z,64.70
2022-09-17T19:06:15.160Z,64.90
2022-09-17T19:08:42.900Z,65.10
2022-09-17T19:11:10.868Z,65.30
2022-09-17T19:13:43.107Z,65.40
2022-09-17T19:16:11.810Z,65.50
2022-09-17T19:18:41.816Z,65.70
2022-09-17T19:21:13.437Z,65.80
2022-09-17T19:23:45.240Z,65.80
2022-09-17T19:26:20.588Z,66.00
2022-09-17T19:28:47.702Z,65.90
2022-09-17T19:31:16.704Z,66.00
2022-09-17T19:33:44.604Z,66.10
2022-09-17T19:36:14.319Z,66.20
2022-09-17T19:38:41.597Z,66.50
2022-09-17T19:41:12.286Z,66.50
2022-09-17T19:43:39.361Z,66.80
2022-09-17T19:46:08.714Z,66.90
2022-09-17T19:48:38.537Z,67.10
2022-09-17T19:51:06.366Z,67.30
2022-09-17T19:53:33.773Z,67.40
2022-09-17T19:56:01.082Z,67.70
2022-09-17T19:58:28.005Z,68.00
2022-09-17T20:00:56.190Z,68.00
2022-09-17T20:03:26.590Z,68.40
2022-09-17T20:06:04.821Z,69.20
2022-09-17T20:08:34.327Z,68.70
2022-09-17T20:11:10.340Z,68.60
2022-09-17T20:13:37.608Z,68.90
2022-09-17T20:16:10.187Z,68.90
2022-09-17T20:18:37.754Z,69.10
2022-09-17T20:21:11.726Z,69.20
2022-09-17T20:23:38.899Z,69.40
2022-09-17T20:26:05.939Z,69.40
2022-09-17T20:28:33.478Z,69.40
2022-09-17T20:31:12.287Z,69.70
2022-09-17T20:33:39.296Z,69.80
2022-09-17T20:36:11.616Z,69.80
2022-09-17T20:41:27.663Z,70.00
2022-09-17T20:43:54.708Z,70.10
2022-09-17T20:46:28.359Z,70.00
2022-09-17T20:48:57.665Z,70.20
2022-09-17T20:51:28.707Z,70.20
2022-09-17T20:53:57.333Z,70.30
2022-09-17T20:56:26.754Z,70.40
2022-09-17T20:59:01.307Z,70.40
2022-09-17T21:01:34.625Z,70.50
2022-09-17T21:04:02.875Z,70.50
2022-09-17T21:06:32.476Z,70.60
2022-09-17T21:09:00.268Z,70.70
2022-09-17T21:11:28.190Z,71.60
2022-09-17T21:13:54.902Z,70.90
2022-09-17T21:16:22.030Z,70.90
2022-09-17T21:18:48.765Z,71.00
2022-09-17T21:21:17.967Z,71.10
2022-09-17T21:23:44.937Z,72.20
2022-09-17T21:26:20.113Z,71.40
2022-09-17T21:28:49.076Z,71.50
2022-09-17T21:31:19.867Z,71.50
2022-09-17T21:33:48.156Z,71.60
2022-09-17T21:36:20.347Z,71.80
2022-09-17T21:38:54.420Z,71.80
2022-09-17T21:41:25.519Z,71.90
2022-09-17T21:43:52.737Z,71.90
2022-09-17T21:46:23.315Z,72.10
2022-09-17T21:49:02.412Z,72.20
2022-09-17T21:51:30.737Z,72.30
2022-09-17T21:54:02.431Z,72.30
2022-09-17T21:56:30.535Z,72.40
2022-09-17T21:59:02.776Z,72.50
2022-09-17T22:01:32.789Z,72.70
2022-09-17T22:04:00.355Z,72.70
2022-09-17T22:06:32.123Z,72.80
2022-09-17T22:09:00.406Z,72.80
2022-09-17T22:11:36.121Z,72.80
2022-09-17T22:14:23.046Z,72.90
2022-09-17T22:16:54.099Z,72.80
2022-09-17T22:19:22.410Z,73.10
2022-09-17T22:21:51.394Z,73.10
2022-09-17T22:24:19.503Z,73.20
2022-09-17T22:26:54.082Z,73.30
2022-09-17T22:29:23.890Z,73.40
2022-09-17T22:31:51.038Z,73.40
2022-09-17T22:34:20.559Z,73.50
2022-09-17T22:36:48.206Z,73.60
2022-09-17T22:39:15.946Z,73.50
2022-09-17T22:41:45.273Z,73.60
2022-09-17T22:44:14.754Z,73.60
2022-09-17T22:46:42.654Z,73.80
2022-09-17T22:49:11.409Z,73.90
2022-09-17T22:51:41.877Z,73.90
2022-09-17T22:54:12.076Z,74.00
2022-09-17T22:56:39.275Z,74.00
2022-09-17T22:59:06.244Z,74.00
2022-09-17T23:01:36.177Z,74.10
2022-09-17T23:04:04.192Z,74.20
2022-09-17T23:06:39.257Z,74.30
2022-09-17T23:09:06.828Z,74.40
2022-09-17T23:11:36.552Z,74.40
2022-09-17T23:14:06.630Z,74.50
2022-09-17T23:16:42.537Z,74.60
2022-09-17T23:19:09.631Z,74.60
2022-09-17T23:21:38.261Z,74.40
2022-09-17T23:24:05.631Z,74.60
2022-09-17T23:26:32.455Z,74.70
2022-09-17T23:29:04.959Z,74.70
2022-09-17T23:31:32.719Z,74.80
2022-09-17T23:34:03.201Z,74.80
2022-09-17T23:36:32.157Z,75.00
2022-09-17T23:38:59.700Z,75.00
2022-09-17T23:41:28.042Z,75.90
2022-09-17T23:43:57.200Z,75.10
2022-09-17T23:46:25.955Z,75.20
2022-09-17T23:48:56.129Z,75.30
2022-09-17T23:51:27.528Z,75.30
2022-09-17T23:53:54.652Z,75.40
2022-09-17T23:56:25.057Z,75.40
2022-09-17T23:58:52.934Z,75.50
